sensor_id;sensor_type;location;lat;lon;timestamp;temperature;humidity
44767;DHT22;30487;48.716;9.272;2023-04-25T00:01:34;9.80;99.90
44767;DHT22;30487;48.716;9.272;2023-04-25T00:04:01;9.80;99.90
44767;DHT22;30487;48.716;9.272;2023-04-25T00:06:28;9.80;99.90
44767;DHT22;30487;48.716;9.272;2023-04-25T00:08:55;9.80;99.90
44767;DHT22;30487;48.716;9.272;2023-04-25T00:11:22;9.80;99.90
44767;DHT22;30487;48.716;9.272;2023-04-25T00:13:47;9.90;99.90
44767;DHT22;30487;48.716;9.272;2023-04-25T00:16:15;10.00;99.90
44767;DHT22;30487;48.716;9.272;2023-04-25T00:18:42;10.00;99.90
44767;DHT22;30487;48.716;9.272;2023-04-25T00:21:08;10.00;99.90
44767;DHT22;30487;48.716;9.272;2023-04-25T00:23:34;9.90;99.90
44767;DHT22;30487;48.716;9.272;2023-04-25T00:26:02;9.90;99.90
44767;DHT22;30487;48.716;9.272;2023-04-25T00:28:27;10.00;99.90
44767;DHT22;30487;48.716;9.272;2023-04-25T00:30:53;10.00;99.90
44767;DHT22;30487;48.716;9.272;2023-04-25T00:33:18;10.00;99.90
44767;DHT22;30487;48.716;9.272;2023-04-25T00:35:44;9.80;99.90
44767;DHT22;30487;48.716;9.272;2023-04-25T00:38:10;9.70;99.90
44767;DHT22;30487;48.716;9.272;2023-04-25T00:40:35;9.60;99.90
44767;DHT22;30487;48.716;9.272;2023-04-25T00:43:01;9.70;99.90
44767;DHT22;30487;48.716;9.272;2023-04-25T00:45:28;9.70;99.90
44767;DHT22;30487;48.716;9.272;2023-04-25T00:47:55;9.80;99.90
44767;DHT22;30487;48.716;9.272;2023-04-25T00:50:21;9.80;99.90
44767;DHT22;30487;48.716;9.272;2023-04-25T00:52:46;9.70;99.90
44767;DHT22;30487;48.716;9.272;2023-04-25T00:55:12;9.60;99.90
44767;DHT22;30487;48.716;9.272;2023-04-25T00:57:39;9.60;99.90
44767;DHT22;30487;48.716;9.272;2023-04-25T01:00:06;9.50;99.90
44767;DHT22;30487;48.716;9.272;2023-04-25T01:02:33;9.50;99.90
44767;DHT22;30487;48.716;9.272;2023-04-25T01:04:59;9.40;99.90
44767;DHT22;30487;48.716;9.272;2023-04-25T01:07:25;9.50;99.90
44767;DHT22;30487;48.716;9.272;2023-04-25T01:09:54;9.30;99.90
44767;DHT22;30487;48.716;9.272;2023-04-25T01:12:19;9.30;99.90
44767;DHT22;30487;48.716;9.272;2023-04-25T01:14:45;9.40;99.90
44767;DHT22;30487;48.716;9.272;2023-04-25T01:17:11;9.50;99.90
44767;DHT22;30487;48.716;9.272;2023-04-25T01:19:37;9.50;99.90
44767;DHT22;30487;48.716;9.272;2023-04-25T01:22:03;9.50;99.90
44767;DHT22;30487;48.716;9.272;2023-04-25T01:24:30;9.50;99.90
44767;DHT22;30487;48.716;9.272;2023-04-25T01:26:58;9.40;99.90
44767;DHT22;30487;48.716;9.272;2023-04-25T01:29:24;9.40;99.90
44767;DHT22;30487;48.716;9.272;2023-04-25T01:31:51;9.30;99.90
44767;DHT22;30487;48.716;9.272;2023-04-25T01:34:16;9.20;99.90
44767;DHT22;30487;48.716;9.272;2023-04-25T01:36:42;9.10;99.90
44767;DHT22;30487;48.716;9.272;2023-04-25T01:39:08;9.10;99.90
44767;DHT22;30487;48.716;9.272;2023-04-25T01:41:34;9.00;99.90
44767;DHT22;30487;48.716;9.272;2023-04-25T01:44:00;9.00;99.90
44767;DHT22;30487;48.716;9.272;2023-04-25T01:46:26;9.00;99.90
44767;DHT22;30487;48.716;9.272;2023-04-25T01:48:51;9.10;99.90
44767;DHT22;30487;48.716;9.272;2023-04-25T01:51:17;9.30;99.90
44767;DHT22;30487;48.716;9.272;2023-04-25T01:53:43;9.40;99.90
44767;DHT22;30487;48.716;9.272;2023-04-25T01:56:09;9.40;99.90
44767;DHT22;30487;48.716;9.272;2023-04-25T01:58:35;9.50;99.90
44767;DHT22;30487;48.716;9.272;2023-04-25T02:01:00;9.60;99.90
44767;DHT22;30487;48.716;9.272;2023-04-25T02:03:26;9.50;99.90
44767;DHT22;30487;48.716;9.272;2023-04-25T02:05:51;9.60;99.90
44767;DHT22;30487;48.716;9.272;2023-04-25T02:08:17;9.60;99.90
44767;DHT22;30487;48.716;9.272;2023-04-25T02:10:43;9.60;99.90
44767;DHT22;30487;48.716;9.272;2023-04-25T02:13:09;9.50;99.90
44767;DHT22;30487;48.716;9.272;2023-04-25T02:15:35;9.50;99.90
44767;DHT22;30487;48.716;9.272;2023-04-25T02:18:00;9.50;99.90
44767;DHT22;30487;48.716;9.272;2023-04-25T02:20:29;9.40;99.90
44767;DHT22;30487;48.716;9.272;2023-04-25T02:22:55;9.40;99.90
44767;DHT22;30487;48.716;9.272;2023-04-25T02:25:21;9.40;99.90
44767;DHT22;30487;48.716;9.272;2023-04-25T02:27:47;9.30;99.90
44767;DHT22;30487;48.716;9.272;2023-04-25T02:30:13;9.30;99.90
44767;DHT22;30487;48.716;9.272;2023-04-25T02:32:40;9.40;99.90
44767;DHT22;30487;48.716;9.272;2023-04-25T02:35:06;9.40;99.90
44767;DHT22;30487;48.716;9.272;2023-04-25T02:37:36;9.30;99.90
44767;DHT22;30487;48.716;9.272;2023-04-25T02:40:02;9.20;99.90
44767;DHT22;30487;48.716;9.272;2023-04-25T02:42:31;9.30;99.90
44767;DHT22;30487;48.716;9.272;2023-04-25T02:44:56;9.30;99.90
44767;DHT22;30487;48.716;9.272;2023-04-25T02:47:22;9.30;99.90
44767;DHT22;30487;48.716;9.272;2023-04-25T02:49:47;9.30;99.90
44767;DHT22;30487;48.716;9.272;2023-04-25T02:52:13;9.20;99.90
44767;DHT22;30487;48.716;9.272;2023-04-25T02:54:40;9.20;99.90
44767;DHT22;30487;48.716;9.272;2023-04-25T02:57:05;9.20;99.90
44767;DHT22;30487;48.716;9.272;2023-04-25T02:59:31;9.20;99.90
44767;DHT22;30487;48.716;9.272;2023-04-25T03:01:56;9.30;99.90
44767;DHT22;30487;48.716;9.272;2023-04-25T03:04:22;9.30;99.90
44767;DHT22;30487;48.716;9.272;2023-04-25T03:06:49;9.20;99.90
44767;DHT22;30487;48.716;9.272;2023-04-25T03:09:15;9.30;99.90
44767;DHT22;30487;48.716;9.272;2023-04-25T03:11:41;9.30;99.90
44767;DHT22;30487;48.716;9.272;2023-04-25T03:14:07;9.40;99.90
44767;DHT22;30487;48.716;9.272;2023-04-25T03:16:33;9.40;99.90
44767;DHT22;30487;48.716;9.272;2023-04-25T03:18:59;9.40;99.90
44767;DHT22;30487;48.716;9.272;2023-04-25T03:21:24;9.40;99.90
44767;DHT22;30487;48.716;9.272;2023-04-25T03:23:50;9.30;99.90
44767;DHT22;30487;48.716;9.272;2023-04-25T03:26:16;9.30;99.90
44767;DHT22;30487;48.716;9.272;2023-04-25T03:28:41;9.20;99.90
44767;DHT22;30487;48.716;9.272;2023-04-25T03:31:07;9.20;99.90
44767;DHT22;30487;48.716;9.272;2023-04-25T03:33:32;9.30;99.90
44767;DHT22;30487;48.716;9.272;2023-04-25T03:35:58;9.30;99.90
44767;DHT22;30487;48.716;9.272;2023-04-25T03:38:24;9.30;99.90
44767;DHT22;30487;48.716;9.272;2023-04-25T03:40:50;9.30;99.90
44767;DHT22;30487;48.716;9.272;2023-04-25T03:43:16;9.40;99.90
44767;DHT22;30487;48.716;9.272;2023-04-25T03:45:42;9.40;99.90
44767;DHT22;30487;48.716;9.272;2023-04-25T03:48:07;9.40;99.90
44767;DHT22;30487;48.716;9.272;2023-04-25T03:50:33;9.40;99.90
44767;DHT22;30487;48.716;9.272;2023-04-25T03:52:59;9.30;99.90
44767;DHT22;30487;48.716;9.272;2023-04-25T03:55:24;9.30;99.90
44767;DHT22;30487;48.716;9.272;2023-04-25T03:57:50;9.20;99.90
44767;DHT22;30487;48.716;9.272;2023-04-25T04:00:16;9.20;99.90
44767;DHT22;30487;48.716;9.272;2023-04-25T04:02:41;9.10;99.90
44767;DHT22;30487;48.716;9.272;2023-04-25T04:05:07;9.10;99.90
44767;DHT22;30487;48.716;9.272;2023-04-25T04:07:33;9.20;99.90
44767;DHT22;30487;48.716;9.272;2023-04-25T04:10:01;9.20;99.90
44767;DHT22;30487;48.716;9.272;2023-04-25T04:12:27;9.10;99.90
44767;DHT22;30487;48.716;9.272;2023-04-25T04:14:53;9.10;99.90
44767;DHT22;30487;48.716;9.272;2023-04-25T04:17:18;9.20;99.90
44767;DHT22;30487;48.716;9.272;2023-04-25T04:19:44;9.30;99.90
44767;DHT22;30487;48.716;9.272;2023-04-25T04:22:09;9.30;99.90
44767;DHT22;30487;48.716;9.272;2023-04-25T04:24:35;9.30;99.90
44767;DHT22;30487;48.716;9.272;2023-04-25T04:27:01;9.30;99.90
44767;DHT22;30487;48.716;9.272;2023-04-25T04:29:26;9.40;99.90
44767;DHT22;30487;48.716;9.272;2023-04-25T04:31:52;9.30;99.90
44767;DHT22;30487;48.716;9.272;2023-04-25T04:34:18;9.20;99.90
44767;DHT22;30487;48.716;9.272;2023-04-25T04:36:47;9.20;99.90
44767;DHT22;30487;48.716;9.272;2023-04-25T04:39:13;9.20;99.90
44767;DHT22;30487;48.716;9.272;2023-04-25T04:41:39;9.30;99.90
44767;DHT22;30487;48.716;9.272;2023-04-25T04:44:05;9.30;99.90
44767;DHT22;30487;48.716;9.272;2023-04-25T04:46:32;9.30;99.90
44767;DHT22;30487;48.716;9.272;2023-04-25T04:49:05;9.30;99.90
44767;DHT22;30487;48.716;9.272;2023-04-25T04:51:31;9.20;99.90
44767;DHT22;30487;48.716;9.272;2023-04-25T04:53:57;9.30;99.90
44767;DHT22;30487;48.716;9.272;2023-04-25T04:56:24;9.30;99.90
44767;DHT22;30487;48.716;9.272;2023-04-25T04:58:51;9.40;99.90
44767;DHT22;30487;48.716;9.272;2023-04-25T05:01:16;9.50;99.90
44767;DHT22;30487;48.716;9.272;2023-04-25T05:03:42;9.50;99.90
44767;DHT22;30487;48.716;9.272;2023-04-25T05:06:07;9.60;99.90
44767;DHT22;30487;48.716;9.272;2023-04-25T05:08:34;9.60;99.90
44767;DHT22;30487;48.716;9.272;2023-04-25T05:10:59;9.60;99.90
44767;DHT22;30487;48.716;9.272;2023-04-25T05:13:25;9.60;99.90
44767;DHT22;30487;48.716;9.272;2023-04-25T05:15:50;9.60;99.90
44767;DHT22;30487;48.716;9.272;2023-04-25T05:18:16;9.60;99.90
44767;DHT22;30487;48.716;9.272;2023-04-25T05:20:41;9.60;99.90
44767;DHT22;30487;48.716;9.272;2023-04-25T05:23:07;9.70;99.90
44767;DHT22;30487;48.716;9.272;2023-04-25T05:25:33;9.70;99.90
44767;DHT22;30487;48.716;9.272;2023-04-25T05:27:58;9.60;99.90
44767;DHT22;30487;48.716;9.272;2023-04-25T05:30:24;9.60;99.90
44767;DHT22;30487;48.716;9.272;2023-04-25T05:32:50;9.60;99.90
44767;DHT22;30487;48.716;9.272;2023-04-25T05:35:16;9.50;99.90
44767;DHT22;30487;48.716;9.272;2023-04-25T05:37:41;9.60;99.90
44767;DHT22;30487;48.716;9.272;2023-04-25T05:40:08;9.60;99.90
44767;DHT22;30487;48.716;9.272;2023-04-25T05:42:34;9.70;99.90
44767;DHT22;30487;48.716;9.272;2023-04-25T05:44:59;9.60;99.90
44767;DHT22;30487;48.716;9.272;2023-04-25T05:47:26;9.80;99.90
44767;DHT22;30487;48.716;9.272;2023-04-25T05:49:51;9.70;99.90
44767;DHT22;30487;48.716;9.272;2023-04-25T05:52:17;9.70;99.90
44767;DHT22;30487;48.716;9.272;2023-04-25T05:54:42;9.70;99.90
44767;DHT22;30487;48.716;9.272;2023-04-25T05:57:08;9.80;99.90
44767;DHT22;30487;48.716;9.272;2023-04-25T05:59:34;9.80;99.90
44767;DHT22;30487;48.716;9.272;2023-04-25T06:01:59;9.90;99.90
44767;DHT22;30487;48.716;9.272;2023-04-25T06:04:26;9.90;99.90
44767;DHT22;30487;48.716;9.272;2023-04-25T06:06:51;9.90;99.90
44767;DHT22;30487;48.716;9.272;2023-04-25T06:09:17;10.10;99.90
44767;DHT22;30487;48.716;9.272;2023-04-25T06:11:42;10.10;99.90
44767;DHT22;30487;48.716;9.272;2023-04-25T06:14:08;10.20;99.90
44767;DHT22;30487;48.716;9.272;2023-04-25T06:16:33;10.20;99.90
44767;DHT22;30487;48.716;9.272;2023-04-25T06:18:59;10.20;99.90
44767;DHT22;30487;48.716;9.272;2023-04-25T06:21:25;10.20;99.90
44767;DHT22;30487;48.716;9.272;2023-04-25T06:23:51;10.10;99.90
44767;DHT22;30487;48.716;9.272;2023-04-25T06:26:16;10.10;99.90
44767;DHT22;30487;48.716;9.272;2023-04-25T06:28:42;10.10;99.90
44767;DHT22;30487;48.716;9.272;2023-04-25T06:31:07;10.10;99.90
44767;DHT22;30487;48.716;9.272;2023-04-25T06:33:33;10.10;99.90
44767;DHT22;30487;48.716;9.272;2023-04-25T06:35:59;10.20;99.90
44767;DHT22;30487;48.716;9.272;2023-04-25T06:38:24;10.20;99.90
44767;DHT22;30487;48.716;9.272;2023-04-25T06:40:50;10.30;99.90
44767;DHT22;30487;48.716;9.272;2023-04-25T06:43:16;10.30;99.90
44767;DHT22;30487;48.716;9.272;2023-04-25T06:45:42;10.30;99.90
44767;DHT22;30487;48.716;9.272;2023-04-25T06:48:07;10.20;99.90
44767;DHT22;30487;48.716;9.272;2023-04-25T06:50:33;10.20;99.90
44767;DHT22;30487;48.716;9.272;2023-04-25T06:52:59;10.20;99.90
44767;DHT22;30487;48.716;9.272;2023-04-25T06:55:26;10.20;99.90
44767;DHT22;30487;48.716;9.272;2023-04-25T06:57:52;10.10;99.90
44767;DHT22;30487;48.716;9.272;2023-04-25T07:00:18;10.10;99.90
44767;DHT22;30487;48.716;9.272;2023-04-25T07:02:44;10.10;99.90
44767;DHT22;30487;48.716;9.272;2023-04-25T07:05:10;10.10;99.90
44767;DHT22;30487;48.716;9.272;2023-04-25T07:07:36;10.10;99.90
44767;DHT22;30487;48.716;9.272;2023-04-25T07:10:01;10.10;99.90
44767;DHT22;30487;48.716;9.272;2023-04-25T07:12:27;10.10;99.90
44767;DHT22;30487;48.716;9.272;2023-04-25T07:14:53;10.10;99.90
44767;DHT22;30487;48.716;9.272;2023-04-25T07:17:18;10.00;99.90
44767;DHT22;30487;48.716;9.272;2023-04-25T07:19:44;10.10;99.90
44767;DHT22;30487;48.716;9.272;2023-04-25T07:22:10;10.00;99.90
44767;DHT22;30487;48.716;9.272;2023-04-25T07:24:35;10.00;99.90
44767;DHT22;30487;48.716;9.272;2023-04-25T07:27:01;10.00;99.90
44767;DHT22;30487;48.716;9.272;2023-04-25T07:29:28;10.00;99.90
44767;DHT22;30487;48.716;9.272;2023-04-25T07:31:53;10.00;99.90
44767;DHT22;30487;48.716;9.272;2023-04-25T07:34:19;10.00;99.90
44767;DHT22;30487;48.716;9.272;2023-04-25T07:36:45;10.00;99.90
44767;DHT22;30487;48.716;9.272;2023-04-25T07:39:11;10.00;99.90
44767;DHT22;30487;48.716;9.272;2023-04-25T07:41:36;10.00;99.90
44767;DHT22;30487;48.716;9.272;2023-04-25T07:44:02;9.90;99.90
44767;DHT22;30487;48.716;9.272;2023-04-25T07:46:28;9.90;99.90
44767;DHT22;30487;48.716;9.272;2023-04-25T07:48:53;9.90;99.90
44767;DHT22;30487;48.716;9.272;2023-04-25T07:51:19;9.90;99.90
44767;DHT22;30487;48.716;9.272;2023-04-25T07:53:45;9.80;99.90
44767;DHT22;30487;48.716;9.272;2023-04-25T07:56:11;9.80;99.90
44767;DHT22;30487;48.716;9.272;2023-04-25T07:58:37;9.80;99.90
44767;DHT22;30487;48.716;9.272;2023-04-25T08:01:02;9.80;99.90
44767;DHT22;30487;48.716;9.272;2023-04-25T08:03:28;9.70;99.90
44767;DHT22;30487;48.716;9.272;2023-04-25T08:05:54;9.90;99.90
44767;DHT22;30487;48.716;9.272;2023-04-25T08:08:19;9.90;99.90
44767;DHT22;30487;48.716;9.272;2023-04-25T08:10:45;9.90;99.90
44767;DHT22;30487;48.716;9.272;2023-04-25T08:13:10;10.00;99.90
44767;DHT22;30487;48.716;9.272;2023-04-25T08:15:36;9.90;99.90
44767;DHT22;30487;48.716;9.272;2023-04-25T08:18:01;9.90;99.90
44767;DHT22;30487;48.716;9.272;2023-04-25T08:20:27;9.80;99.90
44767;DHT22;30487;48.716;9.272;2023-04-25T08:22:53;9.70;99.90
44767;DHT22;30487;48.716;9.272;2023-04-25T08:25:19;9.80;99.90
44767;DHT22;30487;48.716;9.272;2023-04-25T08:27:44;9.80;99.90
44767;DHT22;30487;48.716;9.272;2023-04-25T08:30:10;9.90;99.90
44767;DHT22;30487;48.716;9.272;2023-04-25T08:32:36;9.90;99.90
44767;DHT22;30487;48.716;9.272;2023-04-25T08:35:04;9.80;99.90
44767;DHT22;30487;48.716;9.272;2023-04-25T08:37:29;9.90;99.90
44767;DHT22;30487;48.716;9.272;2023-04-25T08:39:55;9.90;99.90
44767;DHT22;30487;48.716;9.272;2023-04-25T08:42:22;9.90;99.90
44767;DHT22;30487;48.716;9.272;2023-04-25T08:44:48;9.80;99.90
44767;DHT22;30487;48.716;9.272;2023-04-25T08:47:15;9.80;99.90
44767;DHT22;30487;48.716;9.272;2023-04-25T08:49:44;9.70;99.90
44767;DHT22;30487;48.716;9.272;2023-04-25T08:52:11;9.70;99.90
44767;DHT22;30487;48.716;9.272;2023-04-25T08:54:42;9.60;99.90
44767;DHT22;30487;48.716;9.272;2023-04-25T08:57:09;9.50;99.90
44767;DHT22;30487;48.716;9.272;2023-04-25T08:59:35;9.50;99.90
44767;DHT22;30487;48.716;9.272;2023-04-25T09:02:03;9.60;99.90
44767;DHT22;30487;48.716;9.272;2023-04-25T09:04:31;9.60;99.90
44767;DHT22;30487;48.716;9.272;2023-04-25T09:06:56;9.70;99.90
44767;DHT22;30487;48.716;9.272;2023-04-25T09:09:23;9.60;99.90
44767;DHT22;30487;48.716;9.272;2023-04-25T09:11:49;9.70;99.90
44767;DHT22;30487;48.716;9.272;2023-04-25T09:14:23;9.60;99.90
44767;DHT22;30487;48.716;9.272;2023-04-25T09:19:23;9.60;99.90
44767;DHT22;30487;48.716;9.272;2023-04-25T09:21:49;9.60;99.90
44767;DHT22;30487;48.716;9.272;2023-04-25T09:24:15;9.50;99.90
44767;DHT22;30487;48.716;9.272;2023-04-25T09:26:41;9.60;99.90
44767;DHT22;30487;48.716;9.272;2023-04-25T09:29:07;9.60;99.90
44767;DHT22;30487;48.716;9.272;2023-04-25T09:31:33;9.50;99.90
44767;DHT22;30487;48.716;9.272;2023-04-25T09:34:00;9.50;99.90
44767;DHT22;30487;48.716;9.272;2023-04-25T09:36:30;9.40;99.90
44767;DHT22;30487;48.716;9.272;2023-04-25T09:38:56;9.40;99.90
44767;DHT22;30487;48.716;9.272;2023-04-25T09:41:25;9.40;99.90
44767;DHT22;30487;48.716;9.272;2023-04-25T09:43:50;9.40;99.90
44767;DHT22;30487;48.716;9.272;2023-04-25T09:46:16;9.50;99.90
44767;DHT22;30487;48.716;9.272;2023-04-25T09:48:50;9.50;99.90
44767;DHT22;30487;48.716;9.272;2023-04-25T09:51:16;9.40;99.90
44767;DHT22;30487;48.716;9.272;2023-04-25T09:53:46;9.40;99.90
44767;DHT22;30487;48.716;9.272;2023-04-25T09:56:15;9.30;99.90
44767;DHT22;30487;48.716;9.272;2023-04-25T09:58:41;9.40;99.90
44767;DHT22;30487;48.716;9.272;2023-04-25T10:01:09;9.40;99.90
44767;DHT22;30487;48.716;9.272;2023-04-25T10:03:39;9.40;99.90
44767;DHT22;30487;48.716;9.272;2023-04-25T10:06:26;9.40;99.90
44767;DHT22;30487;48.716;9.272;2023-04-25T10:08:52;9.50;99.90
44767;DHT22;30487;48.716;9.272;2023-04-25T10:11:20;9.40;99.90
44767;DHT22;30487;48.716;9.272;2023-04-25T10:13:48;9.40;99.90
44767;DHT22;30487;48.716;9.272;2023-04-25T10:16:14;9.30;99.90
44767;DHT22;30487;48.716;9.272;2023-04-25T10:18:41;9.30;99.90
44767;DHT22;30487;48.716;9.272;2023-04-25T10:21:07;9.20;99.90
44767;DHT22;30487;48.716;9.272;2023-04-25T10:23:33;9.20;99.90
44767;DHT22;30487;48.716;9.272;2023-04-25T10:26:02;9.10;99.90
44767;DHT22;30487;48.716;9.272;2023-04-25T10:28:27;9.20;99.90
44767;DHT22;30487;48.716;9.272;2023-04-25T10:31:04;9.20;99.90
44767;DHT22;30487;48.716;9.272;2023-04-25T10:33:37;9.20;99.90
44767;DHT22;30487;48.716;9.272;2023-04-25T10:38:39;9.20;99.90
44767;DHT22;30487;48.716;9.272;2023-04-25T10:41:09;9.30;99.90
44767;DHT22;30487;48.716;9.272;2023-04-25T10:43:45;9.20;99.90
44767;DHT22;30487;48.716;9.272;2023-04-25T10:51:21;9.30;99.90
44767;DHT22;30487;48.716;9.272;2023-04-25T10:54:07;9.20;99.90
44767;DHT22;30487;48.716;9.272;2023-04-25T10:56:39;9.20;99.90
44767;DHT22;30487;48.716;9.272;2023-04-25T10:59:11;9.20;99.90
44767;DHT22;30487;48.716;9.272;2023-04-25T11:01:42;9.20;99.90
44767;DHT22;30487;48.716;9.272;2023-04-25T11:04:29;9.20;99.90
44767;DHT22;30487;48.716;9.272;2023-04-25T11:07:19;9.20;99.90
44767;DHT22;30487;48.716;9.272;2023-04-25T11:09:49;9.30;99.90
44767;DHT22;30487;48.716;9.272;2023-04-25T11:12:14;9.30;99.90
44767;DHT22;30487;48.716;9.272;2023-04-25T11:14:41;9.30;99.90
44767;DHT22;30487;48.716;9.272;2023-04-25T11:17:07;9.40;99.90
44767;DHT22;30487;48.716;9.272;2023-04-25T11:19:32;9.40;99.90
44767;DHT22;30487;48.716;9.272;2023-04-25T11:22:00;9.40;99.90
44767;DHT22;30487;48.716;9.272;2023-04-25T11:24:30;9.30;99.90
44767;DHT22;30487;48.716;9.272;2023-04-25T11:26:56;9.20;99.90
44767;DHT22;30487;48.716;9.272;2023-04-25T11:29:23;9.20;99.90
44767;DHT22;30487;48.716;9.272;2023-04-25T11:31:52;9.20;99.90
44767;DHT22;30487;48.716;9.272;2023-04-25T11:34:19;9.20;99.90
44767;DHT22;30487;48.716;9.272;2023-04-25T11:36:45;9.20;99.90
44767;DHT22;30487;48.716;9.272;2023-04-25T11:39:11;9.20;99.90
44767;DHT22;30487;48.716;9.272;2023-04-25T11:41:37;9.10;99.90
44767;DHT22;30487;48.716;9.272;2023-04-25T11:44:03;9.20;99.90
44767;DHT22;30487;48.716;9.272;2023-04-25T11:46:30;9.30;99.90
44767;DHT22;30487;48.716;9.272;2023-04-25T11:48:56;9.30;99.90
44767;DHT22;30487;48.716;9.272;2023-04-25T11:51:22;9.40;99.90
44767;DHT22;30487;48.716;9.272;2023-04-25T11:53:48;9.50;99.90
44767;DHT22;30487;48.716;9.272;2023-04-25T11:56:13;9.50;99.90
44767;DHT22;30487;48.716;9.272;2023-04-25T11:58:56;9.60;99.90
44767;DHT22;30487;48.716;9.272;2023-04-25T12:01:49;9.60;99.90
44767;DHT22;30487;48.716;9.272;2023-04-25T12:04:20;9.70;99.90
44767;DHT22;30487;48.716;9.272;2023-04-25T12:06:47;9.90;99.90
44767;DHT22;30487;48.716;9.272;2023-04-25T12:09:14;9.90;99.90
44767;DHT22;30487;48.716;9.272;2023-04-25T12:11:48;10.10;99.90
44767;DHT22;30487;48.716;9.272;2023-04-25T12:14:22;10.10;99.90
44767;DHT22;30487;48.716;9.272;2023-04-25T12:16:49;10.10;99.90
44767;DHT22;30487;48.716;9.272;2023-04-25T12:19:17;10.00;99.90
44767;DHT22;30487;48.716;9.272;2023-04-25T12:21:44;10.00;99.90
44767;DHT22;30487;48.716;9.272;2023-04-25T12:24:21;9.90;99.90
44767;DHT22;30487;48.716;9.272;2023-04-25T12:26:51;9.90;99.90
44767;DHT22;30487;48.716;9.272;2023-04-25T12:29:22;10.00;99.90
44767;DHT22;30487;48.716;9.272;2023-04-25T12:31:48;9.90;99.90
44767;DHT22;30487;48.716;9.272;2023-04-25T12:34:14;10.00;99.90
44767;DHT22;30487;48.716;9.272;2023-04-25T12:36:40;10.00;99.90
44767;DHT22;30487;48.716;9.272;2023-04-25T12:39:06;10.00;99.90
44767;DHT22;30487;48.716;9.272;2023-04-25T12:41:32;9.90;99.90
44767;DHT22;30487;48.716;9.272;2023-04-25T12:43:57;9.90;99.90
44767;DHT22;30487;48.716;9.272;2023-04-25T12:46:23;9.90;99.90
44767;DHT22;30487;48.716;9.272;2023-04-25T12:48:49;9.80;99.90
44767;DHT22;30487;48.716;9.272;2023-04-25T12:51:14;9.80;99.90
44767;DHT22;30487;48.716;9.272;2023-04-25T12:53:41;9.80;99.90
44767;DHT22;30487;48.716;9.272;2023-04-25T12:56:07;9.90;99.90
44767;DHT22;30487;48.716;9.272;2023-04-25T12:58:33;10.00;99.90
44767;DHT22;30487;48.716;9.272;2023-04-25T13:00:59;10.10;99.90
44767;DHT22;30487;48.716;9.272;2023-04-25T13:03:25;10.20;99.90
44767;DHT22;30487;48.716;9.272;2023-04-25T13:05:51;10.40;99.90
44767;DHT22;30487;48.716;9.272;2023-04-25T13:08:18;10.30;99.90
44767;DHT22;30487;48.716;9.272;2023-04-25T13:10:44;10.40;99.90
44767;DHT22;30487;48.716;9.272;2023-04-25T13:13:09;10.50;99.90
44767;DHT22;30487;48.716;9.272;2023-04-25T13:15:35;10.60;99.90
44767;DHT22;30487;48.716;9.272;2023-04-25T13:18:02;10.80;99.90
44767;DHT22;30487;48.716;9.272;2023-04-25T13:20:28;11.00;99.90
44767;DHT22;30487;48.716;9.272;2023-04-25T13:22:54;11.20;99.90
44767;DHT22;30487;48.716;9.272;2023-04-25T13:25:20;11.40;99.90
44767;DHT22;30487;48.716;9.272;2023-04-25T13:27:47;11.50;99.90
44767;DHT22;30487;48.716;9.272;2023-04-25T13:30:13;11.70;99.90
44767;DHT22;30487;48.716;9.272;2023-04-25T13:32:39;11.70;99.90
44767;DHT22;30487;48.716;9.272;2023-04-25T13:35:07;11.80;99.90
44767;DHT22;30487;48.716;9.272;2023-04-25T13:37:34;11.90;99.90
44767;DHT22;30487;48.716;9.272;2023-04-25T13:40:03;12.30;99.90
44767;DHT22;30487;48.716;9.272;2023-04-25T13:42:31;12.50;99.90
44767;DHT22;30487;48.716;9.272;2023-04-25T13:44:56;12.10;99.90
44767;DHT22;30487;48.716;9.272;2023-04-25T13:47:22;12.10;99.90
44767;DHT22;30487;48.716;9.272;2023-04-25T13:49:49;12.00;99.90
44767;DHT22;30487;48.716;9.272;2023-04-25T13:52:14;12.00;99.90
44767;DHT22;30487;48.716;9.272;2023-04-25T13:54:40;12.00;99.90
44767;DHT22;30487;48.716;9.272;2023-04-25T13:57:06;12.00;99.90
44767;DHT22;30487;48.716;9.272;2023-04-25T13:59:32;11.90;99.90
44767;DHT22;30487;48.716;9.272;2023-04-25T14:01:58;11.70;99.90
44767;DHT22;30487;48.716;9.272;2023-04-25T14:04:23;11.90;99.90
44767;DHT22;30487;48.716;9.272;2023-04-25T14:06:50;11.80;99.90
44767;DHT22;30487;48.716;9.272;2023-04-25T14:09:16;11.70;99.90
44767;DHT22;30487;48.716;9.272;2023-04-25T14:11:41;11.50;99.90
44767;DHT22;30487;48.716;9.272;2023-04-25T14:14:07;11.50;99.90
44767;DHT22;30487;48.716;9.272;2023-04-25T14:16:33;11.40;99.90
44767;DHT22;30487;48.716;9.272;2023-04-25T14:18:59;11.40;99.90
44767;DHT22;30487;48.716;9.272;2023-04-25T14:21:25;11.30;99.90
44767;DHT22;30487;48.716;9.272;2023-04-25T14:23:52;11.10;99.90
44767;DHT22;30487;48.716;9.272;2023-04-25T14:26:18;11.10;99.90
44767;DHT22;30487;48.716;9.272;2023-04-25T14:28:43;11.30;99.90
44767;DHT22;30487;48.716;9.272;2023-04-25T14:31:09;11.40;99.90
44767;DHT22;30487;48.716;9.272;2023-04-25T14:33:34;11.30;99.90
44767;DHT22;30487;48.716;9.272;2023-04-25T14:36:00;11.50;99.90
44767;DHT22;30487;48.716;9.272;2023-04-25T14:38:26;11.60;99.90
44767;DHT22;30487;48.716;9.272;2023-04-25T14:40:52;11.60;99.90
44767;DHT22;30487;48.716;9.272;2023-04-25T14:43:19;11.40;99.90
44767;DHT22;30487;48.716;9.272;2023-04-25T14:45:44;11.30;99.90
44767;DHT22;30487;48.716;9.272;2023-04-25T14:48:10;11.40;99.90
44767;DHT22;30487;48.716;9.272;2023-04-25T14:50:36;11.50;99.90
44767;DHT22;30487;48.716;9.272;2023-04-25T14:53:02;11.60;99.90
44767;DHT22;30487;48.716;9.272;2023-04-25T14:55:28;11.40;99.90
44767;DHT22;30487;48.716;9.272;2023-04-25T14:57:54;11.30;99.90
44767;DHT22;30487;48.716;9.272;2023-04-25T15:00:21;11.20;99.90
44767;DHT22;30487;48.716;9.272;2023-04-25T15:02:48;11.30;99.90
44767;DHT22;30487;48.716;9.272;2023-04-25T15:05:14;11.40;99.90
44767;DHT22;30487;48.716;9.272;2023-04-25T15:07:40;11.40;99.90
44767;DHT22;30487;48.716;9.272;2023-04-25T15:10:07;11.40;99.90
44767;DHT22;30487;48.716;9.272;2023-04-25T15:12:41;11.40;99.90
44767;DHT22;30487;48.716;9.272;2023-04-25T15:15:08;11.70;99.90
44767;DHT22;30487;48.716;9.272;2023-04-25T15:17:43;12.10;99.90
44767;DHT22;30487;48.716;9.272;2023-04-25T15:20:11;12.30;99.90
44767;DHT22;30487;48.716;9.272;2023-04-25T15:22:39;12.50;99.90
44767;DHT22;30487;48.716;9.272;2023-04-25T15:25:06;12.70;99.90
44767;DHT22;30487;48.716;9.272;2023-04-25T15:27:33;12.80;99.90
44767;DHT22;30487;48.716;9.272;2023-04-25T15:29:59;12.80;99.90
44767;DHT22;30487;48.716;9.272;2023-04-25T15:32:25;12.90;99.90
44767;DHT22;30487;48.716;9.272;2023-04-25T15:34:51;12.90;99.90
44767;DHT22;30487;48.716;9.272;2023-04-25T15:37:17;12.80;99.90
44767;DHT22;30487;48.716;9.272;2023-04-25T15:39:44;12.90;99.90
44767;DHT22;30487;48.716;9.272;2023-04-25T15:42:09;12.90;99.90
44767;DHT22;30487;48.716;9.272;2023-04-25T15:44:35;12.80;99.90
44767;DHT22;30487;48.716;9.272;2023-04-25T15:47:00;12.90;99.90